Graz

Airport
ICAO code: 
LOWG
IATA Code: 
GRZ
Summary
ICAO Region: 
EUR
Territory: 
Location: 
Abtissendorf, Styria
Serving: 
Graz
Elevation: 
1115 ft
Coordinates: 
Aerial View: 
46° 59' 27.961" N, 15° 26' 22.56" E
Metar
Observation
LOWG 211120Z 34014KT 9999 FEW070 03/M11 Q1025 NOSIG
Station
Graz-Thalerhof-Flughafen
Date/Time
2022-01-21 11:20:00
Wind direction
340°
Wind speed
14 kts
Lowest cloud amount
few clouds
Temperature
3°C
Dew point
-11°C
Humidity
34%
QNH
1025 hPa
Weather condition
n/a

International airport serving southern Austrian city of Graz.

Climatology

Dry-summer subtropical ”Mediterranean" climate (Köppen climate classification Csa) -

Runways

Designator Length Width Surface Rops
17L/35R 640 30 GRS No/No
17R/35L 760 25 GRS No/No
17C/35C 3000 45 ASP Yes/Yes
Airport map: 
Aerial View: 

SKYbrary Partners:

Safety knowledge contributed by: